sensor_id;sensor_type;location;lat;lon;timestamp;P1;durP1;ratioP1;P2;durP2;ratioP2
47259;SDS011;32999;52.412;4.890;2022-12-20T00:03:20;6.72;;;3.00;;
47259;SDS011;32999;52.412;4.890;2022-12-20T00:08:22;6.53;;;2.95;;
47259;SDS011;32999;52.412;4.890;2022-12-20T00:13:25;4.85;;;3.05;;
47259;SDS011;32999;52.412;4.890;2022-12-20T00:18:27;4.43;;;2.65;;
47259;SDS011;32999;52.412;4.890;2022-12-20T00:23:29;6.55;;;2.63;;
47259;SDS011;32999;52.412;4.890;2022-12-20T00:28:33;5.85;;;2.80;;
47259;SDS011;32999;52.412;4.890;2022-12-20T00:33:36;4.00;;;2.40;;
47259;SDS011;32999;52.412;4.890;2022-12-20T00:38:39;4.53;;;2.35;;
47259;SDS011;32999;52.412;4.890;2022-12-20T00:43:42;6.03;;;2.45;;
47259;SDS011;32999;52.412;4.890;2022-12-20T00:48:44;6.05;;;2.92;;
47259;SDS011;32999;52.412;4.890;2022-12-20T00:53:46;8.05;;;2.47;;
47259;SDS011;32999;52.412;4.890;2022-12-20T00:58:50;5.30;;;2.33;;
47259;SDS011;32999;52.412;4.890;2022-12-20T01:03:52;6.30;;;2.83;;
47259;SDS011;32999;52.412;4.890;2022-12-20T01:08:55;5.38;;;3.00;;
47259;SDS011;32999;52.412;4.890;2022-12-20T01:14:00;5.03;;;3.03;;
47259;SDS011;32999;52.412;4.890;2022-12-20T01:19:03;6.20;;;2.85;;
47259;SDS011;32999;52.412;4.890;2022-12-20T01:24:07;6.28;;;2.53;;
47259;SDS011;32999;52.412;4.890;2022-12-20T01:29:10;6.60;;;3.08;;
47259;SDS011;32999;52.412;4.890;2022-12-20T01:34:13;3.60;;;2.60;;
47259;SDS011;32999;52.412;4.890;2022-12-20T01:39:15;5.82;;;3.03;;
47259;SDS011;32999;52.412;4.890;2022-12-20T01:49:59;4.82;;;3.10;;
47259;SDS011;32999;52.412;4.890;2022-12-20T01:55:05;7.57;;;3.33;;
47259;SDS011;32999;52.412;4.890;2022-12-20T02:00:13;5.22;;;2.95;;
47259;SDS011;32999;52.412;4.890;2022-12-20T02:05:17;8.93;;;3.22;;
47259;SDS011;32999;52.412;4.890;2022-12-20T02:10:21;8.35;;;3.28;;
47259;SDS011;32999;52.412;4.890;2022-12-20T02:15:34;7.00;;;3.22;;
47259;SDS011;32999;52.412;4.890;2022-12-20T02:20:46;10.32;;;3.30;;
47259;SDS011;32999;52.412;4.890;2022-12-20T02:27:13;5.47;;;3.33;;
47259;SDS011;32999;52.412;4.890;2022-12-20T02:32:03;4.93;;;3.28;;
47259;SDS011;32999;52.412;4.890;2022-12-20T02:37:09;3.90;;;2.88;;
47259;SDS011;32999;52.412;4.890;2022-12-20T02:42:12;3.95;;;2.65;;
47259;SDS011;32999;52.412;4.890;2022-12-20T02:47:18;3.90;;;2.70;;
47259;SDS011;32999;52.412;4.890;2022-12-20T02:52:24;4.97;;;2.65;;
47259;SDS011;32999;52.412;4.890;2022-12-20T02:57:31;8.65;;;3.67;;
47259;SDS011;32999;52.412;4.890;2022-12-20T03:02:39;5.35;;;2.45;;
47259;SDS011;32999;52.412;4.890;2022-12-20T03:08:00;6.15;;;2.38;;
47259;SDS011;32999;52.412;4.890;2022-12-20T03:13:02;6.38;;;2.42;;
47259;SDS011;32999;52.412;4.890;2022-12-20T03:18:05;9.23;;;3.25;;
47259;SDS011;32999;52.412;4.890;2022-12-20T03:23:07;4.75;;;3.20;;
47259;SDS011;32999;52.412;4.890;2022-12-20T03:28:09;6.68;;;2.58;;
47259;SDS011;32999;52.412;4.890;2022-12-20T03:33:12;6.03;;;3.30;;
47259;SDS011;32999;52.412;4.890;2022-12-20T03:38:14;4.45;;;2.25;;
47259;SDS011;32999;52.412;4.890;2022-12-20T03:43:16;4.43;;;2.67;;
47259;SDS011;32999;52.412;4.890;2022-12-20T03:48:19;3.55;;;2.60;;
47259;SDS011;32999;52.412;4.890;2022-12-20T03:53:21;7.35;;;2.83;;
47259;SDS011;32999;52.412;4.890;2022-12-20T03:58:22;6.43;;;2.67;;
47259;SDS011;32999;52.412;4.890;2022-12-20T04:03:26;4.65;;;2.70;;
47259;SDS011;32999;52.412;4.890;2022-12-20T04:08:28;5.13;;;2.20;;
47259;SDS011;32999;52.412;4.890;2022-12-20T04:13:29;6.00;;;2.08;;
47259;SDS011;32999;52.412;4.890;2022-12-20T04:18:32;4.78;;;2.80;;
47259;SDS011;32999;52.412;4.890;2022-12-20T04:23:35;5.70;;;2.28;;
47259;SDS011;32999;52.412;4.890;2022-12-20T04:28:37;4.60;;;2.28;;
47259;SDS011;32999;52.412;4.890;2022-12-20T04:33:41;3.63;;;2.53;;
47259;SDS011;32999;52.412;4.890;2022-12-20T04:38:42;6.68;;;2.42;;
47259;SDS011;32999;52.412;4.890;2022-12-20T04:43:44;3.80;;;2.55;;
47259;SDS011;32999;52.412;4.890;2022-12-20T04:48:47;4.05;;;2.40;;
47259;SDS011;32999;52.412;4.890;2022-12-20T04:53:49;3.67;;;2.35;;
47259;SDS011;32999;52.412;4.890;2022-12-20T04:58:52;4.38;;;2.47;;
47259;SDS011;32999;52.412;4.890;2022-12-20T05:03:56;3.92;;;2.65;;
47259;SDS011;32999;52.412;4.890;2022-12-20T05:08:58;4.88;;;3.13;;
47259;SDS011;32999;52.412;4.890;2022-12-20T05:13:59;6.10;;;3.10;;
47259;SDS011;32999;52.412;4.890;2022-12-20T05:19:02;4.60;;;3.25;;
47259;SDS011;32999;52.412;4.890;2022-12-20T05:24:05;5.68;;;3.25;;
47259;SDS011;32999;52.412;4.890;2022-12-20T05:29:24;11.75;;;5.75;;
47259;SDS011;32999;52.412;4.890;2022-12-20T05:34:28;5.82;;;3.78;;
47259;SDS011;32999;52.412;4.890;2022-12-20T05:39:29;7.50;;;3.78;;
47259;SDS011;32999;52.412;4.890;2022-12-20T05:44:32;6.82;;;4.10;;
47259;SDS011;32999;52.412;4.890;2022-12-20T05:49:36;5.35;;;3.90;;
47259;SDS011;32999;52.412;4.890;2022-12-20T05:54:38;5.28;;;4.00;;
47259;SDS011;32999;52.412;4.890;2022-12-20T05:59:39;7.22;;;4.20;;
47259;SDS011;32999;52.412;4.890;2022-12-20T06:04:42;5.75;;;3.83;;
47259;SDS011;32999;52.412;4.890;2022-12-20T06:09:44;6.75;;;4.00;;
47259;SDS011;32999;52.412;4.890;2022-12-20T06:14:46;8.82;;;5.00;;
47259;SDS011;32999;52.412;4.890;2022-12-20T06:19:49;12.95;;;5.07;;
47259;SDS011;32999;52.412;4.890;2022-12-20T06:24:51;9.38;;;4.63;;
47259;SDS011;32999;52.412;4.890;2022-12-20T06:29:53;5.32;;;3.70;;
47259;SDS011;32999;52.412;4.890;2022-12-20T06:34:57;6.97;;;3.63;;
47259;SDS011;32999;52.412;4.890;2022-12-20T06:39:59;8.07;;;3.30;;
47259;SDS011;32999;52.412;4.890;2022-12-20T06:45:01;4.65;;;2.60;;
47259;SDS011;32999;52.412;4.890;2022-12-20T06:50:04;4.68;;;2.72;;
47259;SDS011;32999;52.412;4.890;2022-12-20T06:55:07;7.32;;;2.83;;
47259;SDS011;32999;52.412;4.890;2022-12-20T07:00:09;3.22;;;2.63;;
47259;SDS011;32999;52.412;4.890;2022-12-20T07:05:14;5.97;;;2.45;;
47259;SDS011;32999;52.412;4.890;2022-12-20T07:10:15;5.13;;;2.47;;
47259;SDS011;32999;52.412;4.890;2022-12-20T07:15:17;4.75;;;2.20;;
47259;SDS011;32999;52.412;4.890;2022-12-20T07:20:22;7.18;;;2.75;;
47259;SDS011;32999;52.412;4.890;2022-12-20T07:25:24;6.90;;;2.80;;
47259;SDS011;32999;52.412;4.890;2022-12-20T07:30:25;7.18;;;2.90;;
47259;SDS011;32999;52.412;4.890;2022-12-20T07:35:29;7.65;;;2.40;;
47259;SDS011;32999;52.412;4.890;2022-12-20T07:40:31;6.22;;;2.03;;
47259;SDS011;32999;52.412;4.890;2022-12-20T07:45:32;4.68;;;2.33;;
47259;SDS011;32999;52.412;4.890;2022-12-20T07:50:36;6.15;;;2.38;;
47259;SDS011;32999;52.412;4.890;2022-12-20T07:55:37;4.80;;;2.40;;
47259;SDS011;32999;52.412;4.890;2022-12-20T08:00:41;7.07;;;2.13;;
47259;SDS011;32999;52.412;4.890;2022-12-20T08:05:45;3.65;;;2.13;;
47259;SDS011;32999;52.412;4.890;2022-12-20T08:10:50;8.02;;;2.35;;
47259;SDS011;32999;52.412;4.890;2022-12-20T08:15:51;8.75;;;2.25;;
47259;SDS011;32999;52.412;4.890;2022-12-20T08:20:54;5.22;;;2.10;;
47259;SDS011;32999;52.412;4.890;2022-12-20T08:25:59;4.93;;;1.70;;
47259;SDS011;32999;52.412;4.890;2022-12-20T08:31:01;6.03;;;2.53;;
47259;SDS011;32999;52.412;4.890;2022-12-20T08:36:06;3.90;;;2.58;;
47259;SDS011;32999;52.412;4.890;2022-12-20T08:41:09;6.95;;;2.90;;
47259;SDS011;32999;52.412;4.890;2022-12-20T08:46:37;6.03;;;2.90;;
47259;SDS011;32999;52.412;4.890;2022-12-20T08:57:39;7.50;;;2.85;;
47259;SDS011;32999;52.412;4.890;2022-12-20T09:02:41;4.78;;;3.00;;
47259;SDS011;32999;52.412;4.890;2022-12-20T09:07:43;8.27;;;3.08;;
47259;SDS011;32999;52.412;4.890;2022-12-20T09:12:46;6.10;;;3.33;;
47259;SDS011;32999;52.412;4.890;2022-12-20T09:17:48;7.72;;;3.20;;
47259;SDS011;32999;52.412;4.890;2022-12-20T09:22:50;7.25;;;3.50;;
47259;SDS011;32999;52.412;4.890;2022-12-20T09:27:53;6.05;;;3.17;;
47259;SDS011;32999;52.412;4.890;2022-12-20T09:32:55;8.25;;;2.95;;
47259;SDS011;32999;52.412;4.890;2022-12-20T09:37:57;7.43;;;3.03;;
47259;SDS011;32999;52.412;4.890;2022-12-20T09:43:01;8.57;;;3.30;;
47259;SDS011;32999;52.412;4.890;2022-12-20T09:48:03;11.80;;;3.38;;
47259;SDS011;32999;52.412;4.890;2022-12-20T09:53:10;6.63;;;3.30;;
47259;SDS011;32999;52.412;4.890;2022-12-20T09:58:27;5.38;;;2.88;;
47259;SDS011;32999;52.412;4.890;2022-12-20T10:03:52;5.72;;;3.35;;
47259;SDS011;32999;52.412;4.890;2022-12-20T10:08:55;5.47;;;3.28;;
47259;SDS011;32999;52.412;4.890;2022-12-20T10:14:10;9.30;;;3.63;;
47259;SDS011;32999;52.412;4.890;2022-12-20T10:19:33;6.18;;;3.53;;
47259;SDS011;32999;52.412;4.890;2022-12-20T10:24:47;7.95;;;3.42;;
47259;SDS011;32999;52.412;4.890;2022-12-20T10:29:56;9.07;;;3.20;;
47259;SDS011;32999;52.412;4.890;2022-12-20T10:34:58;6.07;;;3.50;;
47259;SDS011;32999;52.412;4.890;2022-12-20T10:40:22;6.85;;;3.10;;
47259;SDS011;32999;52.412;4.890;2022-12-20T10:45:31;11.10;;;4.00;;
47259;SDS011;32999;52.412;4.890;2022-12-20T10:50:35;5.10;;;3.53;;
47259;SDS011;32999;52.412;4.890;2022-12-20T10:55:37;5.45;;;3.33;;
47259;SDS011;32999;52.412;4.890;2022-12-20T11:00:42;6.35;;;4.18;;
47259;SDS011;32999;52.412;4.890;2022-12-20T11:05:51;9.98;;;4.18;;
47259;SDS011;32999;52.412;4.890;2022-12-20T11:11:12;8.38;;;3.70;;
47259;SDS011;32999;52.412;4.890;2022-12-20T11:16:24;8.02;;;3.72;;
47259;SDS011;32999;52.412;4.890;2022-12-20T11:21:32;11.45;;;4.03;;
47259;SDS011;32999;52.412;4.890;2022-12-20T11:26:56;5.57;;;3.17;;
47259;SDS011;32999;52.412;4.890;2022-12-20T11:32:08;4.65;;;2.97;;
47259;SDS011;32999;52.412;4.890;2022-12-20T11:37:21;10.00;;;3.40;;
47259;SDS011;32999;52.412;4.890;2022-12-20T11:42:25;6.90;;;3.53;;
47259;SDS011;32999;52.412;4.890;2022-12-20T11:47:47;7.47;;;3.20;;
47259;SDS011;32999;52.412;4.890;2022-12-20T11:53:06;4.07;;;3.15;;
47259;SDS011;32999;52.412;4.890;2022-12-20T11:58:23;11.63;;;3.85;;
47259;SDS011;32999;52.412;4.890;2022-12-20T12:03:31;10.13;;;3.50;;
47259;SDS011;32999;52.412;4.890;2022-12-20T12:08:38;8.57;;;3.70;;
47259;SDS011;32999;52.412;4.890;2022-12-20T12:13:44;5.43;;;3.38;;
47259;SDS011;32999;52.412;4.890;2022-12-20T12:18:52;8.43;;;4.15;;
47259;SDS011;32999;52.412;4.890;2022-12-20T12:23:56;11.18;;;4.07;;
47259;SDS011;32999;52.412;4.890;2022-12-20T12:29:05;7.90;;;4.30;;
47259;SDS011;32999;52.412;4.890;2022-12-20T12:34:16;7.18;;;4.60;;
47259;SDS011;32999;52.412;4.890;2022-12-20T12:45:18;10.13;;;4.72;;
47259;SDS011;32999;52.412;4.890;2022-12-20T12:50:26;8.25;;;5.28;;
47259;SDS011;32999;52.412;4.890;2022-12-20T12:55:34;8.70;;;4.90;;
47259;SDS011;32999;52.412;4.890;2022-12-20T13:00:47;10.43;;;5.32;;
47259;SDS011;32999;52.412;4.890;2022-12-20T13:05:51;8.50;;;5.40;;
47259;SDS011;32999;52.412;4.890;2022-12-20T13:10:58;11.18;;;5.47;;
47259;SDS011;32999;52.412;4.890;2022-12-20T13:16:12;10.23;;;6.30;;
47259;SDS011;32999;52.412;4.890;2022-12-20T13:21:37;7.68;;;5.47;;
47259;SDS011;32999;52.412;4.890;2022-12-20T13:26:49;8.43;;;5.88;;
47259;SDS011;32999;52.412;4.890;2022-12-20T13:31:52;10.13;;;7.10;;
47259;SDS011;32999;52.412;4.890;2022-12-20T13:36:58;8.23;;;6.82;;
47259;SDS011;32999;52.412;4.890;2022-12-20T13:42:12;9.88;;;6.20;;
47259;SDS011;32999;52.412;4.890;2022-12-20T13:47:30;9.45;;;6.03;;
47259;SDS011;32999;52.412;4.890;2022-12-20T13:52:38;9.18;;;6.35;;
47259;SDS011;32999;52.412;4.890;2022-12-20T13:57:43;8.48;;;6.90;;
47259;SDS011;32999;52.412;4.890;2022-12-20T14:02:46;8.55;;;6.38;;
47259;SDS011;32999;52.412;4.890;2022-12-20T14:07:50;11.30;;;7.13;;
47259;SDS011;32999;52.412;4.890;2022-12-20T14:12:57;9.27;;;6.53;;
47259;SDS011;32999;52.412;4.890;2022-12-20T14:18:14;14.32;;;7.82;;
47259;SDS011;32999;52.412;4.890;2022-12-20T14:23:20;13.02;;;7.05;;
47259;SDS011;32999;52.412;4.890;2022-12-20T14:28:27;11.40;;;7.20;;
47259;SDS011;32999;52.412;4.890;2022-12-20T14:33:33;12.60;;;8.05;;
47259;SDS011;32999;52.412;4.890;2022-12-20T14:38:38;11.07;;;7.80;;
47259;SDS011;32999;52.412;4.890;2022-12-20T14:43:40;13.23;;;8.40;;
47259;SDS011;32999;52.412;4.890;2022-12-20T14:48:42;15.18;;;7.85;;
47259;SDS011;32999;52.412;4.890;2022-12-20T14:53:46;14.52;;;9.18;;
47259;SDS011;32999;52.412;4.890;2022-12-20T14:59:00;15.85;;;9.15;;
47259;SDS011;32999;52.412;4.890;2022-12-20T15:04:17;16.45;;;9.60;;
47259;SDS011;32999;52.412;4.890;2022-12-20T15:09:26;16.48;;;10.27;;
47259;SDS011;32999;52.412;4.890;2022-12-20T15:14:31;19.92;;;10.85;;
47259;SDS011;32999;52.412;4.890;2022-12-20T15:19:35;17.15;;;10.35;;
47259;SDS011;32999;52.412;4.890;2022-12-20T15:24:39;17.40;;;10.27;;
47259;SDS011;32999;52.412;4.890;2022-12-20T15:29:42;18.67;;;10.95;;
47259;SDS011;32999;52.412;4.890;2022-12-20T15:34:44;20.23;;;10.98;;
47259;SDS011;32999;52.412;4.890;2022-12-20T15:39:47;14.85;;;10.70;;
47259;SDS011;32999;52.412;4.890;2022-12-20T15:44:49;19.75;;;12.40;;
47259;SDS011;32999;52.412;4.890;2022-12-20T15:49:51;18.80;;;11.32;;
47259;SDS011;32999;52.412;4.890;2022-12-20T15:54:54;20.40;;;12.80;;
47259;SDS011;32999;52.412;4.890;2022-12-20T15:59:55;18.30;;;11.77;;
47259;SDS011;32999;52.412;4.890;2022-12-20T16:04:57;23.30;;;13.50;;
47259;SDS011;32999;52.412;4.890;2022-12-20T16:10:02;22.88;;;13.55;;
47259;SDS011;32999;52.412;4.890;2022-12-20T16:15:04;30.55;;;15.32;;
47259;SDS011;32999;52.412;4.890;2022-12-20T16:20:08;25.80;;;15.45;;
47259;SDS011;32999;52.412;4.890;2022-12-20T16:25:17;23.40;;;14.85;;
47259;SDS011;32999;52.412;4.890;2022-12-20T16:35:28;36.13;;;18.73;;
47259;SDS011;32999;52.412;4.890;2022-12-20T16:40:33;37.88;;;18.15;;
47259;SDS011;32999;52.412;4.890;2022-12-20T16:45:34;34.85;;;17.27;;
47259;SDS011;32999;52.412;4.890;2022-12-20T16:50:36;31.08;;;17.38;;
47259;SDS011;32999;52.412;4.890;2022-12-20T16:55:44;39.42;;;18.55;;
47259;SDS011;32999;52.412;4.890;2022-12-20T17:00:45;33.78;;;17.33;;
47259;SDS011;32999;52.412;4.890;2022-12-20T17:05:47;32.22;;;17.23;;
47259;SDS011;32999;52.412;4.890;2022-12-20T17:10:50;33.03;;;17.48;;
47259;SDS011;32999;52.412;4.890;2022-12-20T17:15:52;40.50;;;17.42;;
47259;SDS011;32999;52.412;4.890;2022-12-20T17:20:54;38.75;;;18.73;;
47259;SDS011;32999;52.412;4.890;2022-12-20T17:25:57;38.58;;;19.33;;
47259;SDS011;32999;52.412;4.890;2022-12-20T17:30:58;34.03;;;17.38;;
47259;SDS011;32999;52.412;4.890;2022-12-20T17:36:00;36.78;;;18.73;;
47259;SDS011;32999;52.412;4.890;2022-12-20T17:41:04;41.30;;;19.90;;
47259;SDS011;32999;52.412;4.890;2022-12-20T17:46:06;45.58;;;20.77;;
47259;SDS011;32999;52.412;4.890;2022-12-20T17:51:09;43.42;;;19.55;;
47259;SDS011;32999;52.412;4.890;2022-12-20T17:56:18;38.17;;;19.08;;
47259;SDS011;32999;52.412;4.890;2022-12-20T18:01:23;49.83;;;22.15;;
47259;SDS011;32999;52.412;4.890;2022-12-20T18:06:26;57.75;;;23.35;;
47259;SDS011;32999;52.412;4.890;2022-12-20T18:11:32;79.75;;;27.58;;
47259;SDS011;32999;52.412;4.890;2022-12-20T18:16:34;61.13;;;27.45;;
47259;SDS011;32999;52.412;4.890;2022-12-20T18:21:37;44.85;;;22.10;;
47259;SDS011;32999;52.412;4.890;2022-12-20T18:26:42;49.17;;;22.83;;
47259;SDS011;32999;52.412;4.890;2022-12-20T18:31:45;43.13;;;20.50;;
47259;SDS011;32999;52.412;4.890;2022-12-20T18:36:46;35.65;;;17.58;;
47259;SDS011;32999;52.412;4.890;2022-12-20T18:41:49;35.28;;;15.40;;
47259;SDS011;32999;52.412;4.890;2022-12-20T18:46:51;38.03;;;13.52;;
47259;SDS011;32999;52.412;4.890;2022-12-20T18:51:53;27.52;;;12.40;;
47259;SDS011;32999;52.412;4.890;2022-12-20T18:57:00;30.73;;;13.52;;
47259;SDS011;32999;52.412;4.890;2022-12-20T19:02:04;33.33;;;16.90;;
47259;SDS011;32999;52.412;4.890;2022-12-20T19:07:07;39.88;;;18.40;;
47259;SDS011;32999;52.412;4.890;2022-12-20T19:24:06;35.55;;;17.10;;
47259;SDS011;32999;52.412;4.890;2022-12-20T19:29:09;37.77;;;17.33;;
47259;SDS011;32999;52.412;4.890;2022-12-20T19:34:13;41.60;;;17.92;;
47259;SDS011;32999;52.412;4.890;2022-12-20T19:39:17;42.73;;;18.40;;
47259;SDS011;32999;52.412;4.890;2022-12-20T19:44:21;37.15;;;16.48;;
47259;SDS011;32999;52.412;4.890;2022-12-20T19:49:33;41.38;;;17.27;;
47259;SDS011;32999;52.412;4.890;2022-12-20T19:54:56;34.57;;;16.03;;
47259;SDS011;32999;52.412;4.890;2022-12-20T19:59:58;37.25;;;14.05;;
47259;SDS011;32999;52.412;4.890;2022-12-20T20:05:00;46.75;;;18.33;;
47259;SDS011;32999;52.412;4.890;2022-12-20T20:10:10;46.08;;;17.35;;
47259;SDS011;32999;52.412;4.890;2022-12-20T20:15:12;30.00;;;13.40;;
47259;SDS011;32999;52.412;4.890;2022-12-20T20:20:15;39.70;;;12.23;;
47259;SDS011;32999;52.412;4.890;2022-12-20T20:25:19;29.95;;;13.07;;
47259;SDS011;32999;52.412;4.890;2022-12-20T20:30:21;31.33;;;11.70;;
47259;SDS011;32999;52.412;4.890;2022-12-20T20:35:23;24.92;;;12.13;;
47259;SDS011;32999;52.412;4.890;2022-12-20T20:40:29;23.27;;;10.35;;
47259;SDS011;32999;52.412;4.890;2022-12-20T20:46:14;35.97;;;11.85;;
47259;SDS011;32999;52.412;4.890;2022-12-20T20:51:17;23.92;;;10.00;;
47259;SDS011;32999;52.412;4.890;2022-12-20T20:56:20;22.33;;;9.65;;
47259;SDS011;32999;52.412;4.890;2022-12-20T21:01:22;27.13;;;10.18;;
47259;SDS011;32999;52.412;4.890;2022-12-20T21:06:23;31.90;;;12.57;;
47259;SDS011;32999;52.412;4.890;2022-12-20T21:11:28;32.35;;;12.05;;
47259;SDS011;32999;52.412;4.890;2022-12-20T21:16:32;26.27;;;11.43;;
47259;SDS011;32999;52.412;4.890;2022-12-20T21:21:34;23.88;;;9.13;;
47259;SDS011;32999;52.412;4.890;2022-12-20T21:26:37;21.63;;;8.85;;
47259;SDS011;32999;52.412;4.890;2022-12-20T21:31:39;20.65;;;8.27;;
47259;SDS011;32999;52.412;4.890;2022-12-20T21:36:40;19.50;;;7.30;;
47259;SDS011;32999;52.412;4.890;2022-12-20T21:41:44;26.27;;;8.27;;
47259;SDS011;32999;52.412;4.890;2022-12-20T21:46:46;14.55;;;7.50;;
47259;SDS011;32999;52.412;4.890;2022-12-20T21:51:51;27.08;;;9.50;;
47259;SDS011;32999;52.412;4.890;2022-12-20T21:56:56;27.27;;;11.90;;
47259;SDS011;32999;52.412;4.890;2022-12-20T22:01:58;28.58;;;10.88;;
47259;SDS011;32999;52.412;4.890;2022-12-20T22:07:00;28.30;;;11.63;;
47259;SDS011;32999;52.412;4.890;2022-12-20T22:12:04;25.77;;;10.95;;
47259;SDS011;32999;52.412;4.890;2022-12-20T22:17:05;26.25;;;9.32;;
47259;SDS011;32999;52.412;4.890;2022-12-20T22:22:07;25.33;;;7.60;;
47259;SDS011;32999;52.412;4.890;2022-12-20T22:27:10;22.35;;;8.32;;
47259;SDS011;32999;52.412;4.890;2022-12-20T22:32:12;18.52;;;8.10;;
47259;SDS011;32999;52.412;4.890;2022-12-20T22:37:14;20.95;;;6.88;;
47259;SDS011;32999;52.412;4.890;2022-12-20T22:42:17;21.65;;;8.25;;
47259;SDS011;32999;52.412;4.890;2022-12-20T22:47:18;16.33;;;6.93;;
47259;SDS011;32999;52.412;4.890;2022-12-20T22:52:20;23.60;;;7.53;;
47259;SDS011;32999;52.412;4.890;2022-12-20T22:57:24;36.70;;;10.40;;
47259;SDS011;32999;52.412;4.890;2022-12-20T23:02:26;21.50;;;7.77;;
47259;SDS011;32999;52.412;4.890;2022-12-20T23:07:28;18.55;;;7.60;;
47259;SDS011;32999;52.412;4.890;2022-12-20T23:12:31;23.67;;;9.15;;
47259;SDS011;32999;52.412;4.890;2022-12-20T23:17:50;25.67;;;8.23;;
47259;SDS011;32999;52.412;4.890;2022-12-20T23:22:52;24.63;;;7.97;;
47259;SDS011;32999;52.412;4.890;2022-12-20T23:27:55;22.92;;;7.93;;
47259;SDS011;32999;52.412;4.890;2022-12-20T23:32:56;20.63;;;7.28;;
47259;SDS011;32999;52.412;4.890;2022-12-20T23:37:58;19.50;;;6.72;;
47259;SDS011;32999;52.412;4.890;2022-12-20T23:43:01;25.88;;;7.07;;
47259;SDS011;32999;52.412;4.890;2022-12-20T23:48:03;22.30;;;7.97;;
47259;SDS011;32999;52.412;4.890;2022-12-20T23:53:06;17.10;;;6.10;;
47259;SDS011;32999;52.412;4.890;2022-12-20T23:58:09;20.95;;;8.88;;
